Tropical Cyclones
[Index]
Main Index Home Page Stock Weather Photos Extreme Storms Discussion Storm News and Storm Chasing Reports Tropical Cyclones / Hurricanes / Typhoons Weather Data and Links Wild Fires / Bushfires Weather Observation Techniques Weather Picture Catalogue Tornado Pictures and Reports Stock Video Footage and DVDs for sale
Season 2015-2016 Tropical Cyclone 201616 Track Map
Season 2015-2016 Summaries (Operational Data): [AU] [SIO] [SPAC] [SH]
<<- Previous TC | 2015-2016 Season | Next TC ->>

click for intensity scale information  Lat/long Grid: Show Hide

 Date Labels: Show Hide

Operational Tropical Cyclone Data : JTWC Advisories

Name: 201616
Number: 1616

12 Mar 2016 06:00 UTC to 17 Mar 2016 06:00 UTC

    date/time    lat    long     hPa   cat  kts
2016-03-12 06   16.9   135.7    1010         10          
2016-03-12 12   16.8   136.0    1009         10          
2016-03-12 18   16.7   136.3    1008         10          
2016-03-13 00   16.5   136.5    1007         10          
2016-03-13 06   16.5   136.7    1007         10          
2016-03-13 12   16.4   137.0    1006         15          
2016-03-13 18   16.4   137.3    1007         20          
2016-03-14 00   15.9   136.1    1007         20          
2016-03-14 06   15.9   136.5    1005         20          
2016-03-14 12   15.9   136.9    1005         20          
2016-03-14 18   15.9   137.3    1003         25          
2016-03-15 00   15.8   137.6    1003         25          
2016-03-15 06   15.6   137.9    1002         25          
2016-03-15 12   15.6   138.4    1001         25          
2016-03-15 18   16.0   139.3     999         30          
2016-03-16 00   16.3   140.2     996    1    35          
2016-03-16 06   16.8   140.9     994    1    45          
2016-03-16 12   17.2   140.9     995    1    35          
2016-03-16 18   17.4   142.3    1000         30          
2016-03-17 00   17.5   142.5    1004         25          
2016-03-17 06   17.6   142.3    1007         20          
Winds are 10-min average.

Tropical cyclone tracks developed by Michael Bath using operational warnings and advisories and Google Maps.


[Australian Severe Weather index] [Copyright Notice] [Email Contacts] [Search This Site] [Privacy Policy]
Document: tropical_cyclone_201616.htm Updated: 2 May 2017